sensor_id;sensor_type;location;lat;lon;timestamp;temperature;humidity
3994;DHT22;2011;48.238;13.948;2022-12-07T00:01:25;3.70;99.90
3994;DHT22;2011;48.238;13.948;2022-12-07T00:03:53;3.60;99.90
3994;DHT22;2011;48.238;13.948;2022-12-07T00:06:24;3.60;99.90
3994;DHT22;2011;48.238;13.948;2022-12-07T00:08:50;3.60;99.90
3994;DHT22;2011;48.238;13.948;2022-12-07T00:11:23;3.60;99.90
3994;DHT22;2011;48.238;13.948;2022-12-07T00:13:51;3.70;99.90
3994;DHT22;2011;48.238;13.948;2022-12-07T00:16:21;3.70;99.90
3994;DHT22;2011;48.238;13.948;2022-12-07T00:18:48;3.70;99.90
3994;DHT22;2011;48.238;13.948;2022-12-07T00:21:18;3.60;99.90
3994;DHT22;2011;48.238;13.948;2022-12-07T00:23:47;3.60;99.90
3994;DHT22;2011;48.238;13.948;2022-12-07T00:26:16;3.60;99.90
3994;DHT22;2011;48.238;13.948;2022-12-07T00:28:45;3.60;99.90
3994;DHT22;2011;48.238;13.948;2022-12-07T00:31:13;3.60;99.90
3994;DHT22;2011;48.238;13.948;2022-12-07T00:33:40;3.60;99.90
3994;DHT22;2011;48.238;13.948;2022-12-07T00:36:08;3.60;99.90
3994;DHT22;2011;48.238;13.948;2022-12-07T00:38:37;3.60;99.90
3994;DHT22;2011;48.238;13.948;2022-12-07T00:41:08;3.60;99.90
3994;DHT22;2011;48.238;13.948;2022-12-07T00:43:35;3.60;99.90
3994;DHT22;2011;48.238;13.948;2022-12-07T00:46:03;3.60;99.90
3994;DHT22;2011;48.238;13.948;2022-12-07T00:48:30;3.60;99.90
3994;DHT22;2011;48.238;13.948;2022-12-07T00:50:57;3.60;99.90
3994;DHT22;2011;48.238;13.948;2022-12-07T00:53:24;3.60;99.90
3994;DHT22;2011;48.238;13.948;2022-12-07T00:55:51;3.70;99.90
3994;DHT22;2011;48.238;13.948;2022-12-07T00:58:20;3.60;99.90
3994;DHT22;2011;48.238;13.948;2022-12-07T01:00:47;3.60;99.90
3994;DHT22;2011;48.238;13.948;2022-12-07T01:03:15;3.60;99.90
3994;DHT22;2011;48.238;13.948;2022-12-07T01:05:50;3.60;99.90
3994;DHT22;2011;48.238;13.948;2022-12-07T01:08:17;3.60;99.90
3994;DHT22;2011;48.238;13.948;2022-12-07T01:10:44;3.70;99.90
3994;DHT22;2011;48.238;13.948;2022-12-07T01:13:11;3.70;99.90
3994;DHT22;2011;48.238;13.948;2022-12-07T01:15:41;3.70;99.90
3994;DHT22;2011;48.238;13.948;2022-12-07T01:18:08;3.70;99.90
3994;DHT22;2011;48.238;13.948;2022-12-07T01:20:36;3.70;99.90
3994;DHT22;2011;48.238;13.948;2022-12-07T01:23:03;3.70;99.90
3994;DHT22;2011;48.238;13.948;2022-12-07T01:25:30;3.70;99.90
3994;DHT22;2011;48.238;13.948;2022-12-07T01:27:57;3.60;99.90
3994;DHT22;2011;48.238;13.948;2022-12-07T01:30:24;3.60;99.90
3994;DHT22;2011;48.238;13.948;2022-12-07T01:32:52;3.50;99.90
3994;DHT22;2011;48.238;13.948;2022-12-07T01:35:19;3.50;99.90
3994;DHT22;2011;48.238;13.948;2022-12-07T01:37:46;3.40;99.90
3994;DHT22;2011;48.238;13.948;2022-12-07T01:40:13;3.40;99.90
3994;DHT22;2011;48.238;13.948;2022-12-07T01:42:40;3.40;99.90
3994;DHT22;2011;48.238;13.948;2022-12-07T01:45:38;3.40;99.90
3994;DHT22;2011;48.238;13.948;2022-12-07T01:48:08;3.40;99.90
3994;DHT22;2011;48.238;13.948;2022-12-07T01:50:37;3.40;99.90
3994;DHT22;2011;48.238;13.948;2022-12-07T01:53:07;3.40;99.90
3994;DHT22;2011;48.238;13.948;2022-12-07T01:55:38;3.40;99.90
3994;DHT22;2011;48.238;13.948;2022-12-07T01:58:07;3.50;99.90
3994;DHT22;2011;48.238;13.948;2022-12-07T02:00:34;3.50;99.90
3994;DHT22;2011;48.238;13.948;2022-12-07T02:03:05;3.50;99.90
3994;DHT22;2011;48.238;13.948;2022-12-07T02:05:35;3.50;99.90
3994;DHT22;2011;48.238;13.948;2022-12-07T02:08:04;3.50;99.90
3994;DHT22;2011;48.238;13.948;2022-12-07T02:10:31;3.50;99.90
3994;DHT22;2011;48.238;13.948;2022-12-07T02:13:01;3.50;99.90
3994;DHT22;2011;48.238;13.948;2022-12-07T02:15:39;3.50;99.90
3994;DHT22;2011;48.238;13.948;2022-12-07T02:18:11;3.50;99.90
3994;DHT22;2011;48.238;13.948;2022-12-07T02:20:43;3.50;99.90
3994;DHT22;2011;48.238;13.948;2022-12-07T02:23:38;3.50;99.90
3994;DHT22;2011;48.238;13.948;2022-12-07T02:26:34;3.50;99.90
3994;DHT22;2011;48.238;13.948;2022-12-07T02:29:14;3.50;99.90
3994;DHT22;2011;48.238;13.948;2022-12-07T02:31:48;3.50;99.90
3994;DHT22;2011;48.238;13.948;2022-12-07T02:34:22;3.40;99.90
3994;DHT22;2011;48.238;13.948;2022-12-07T02:36:56;3.40;99.90
3994;DHT22;2011;48.238;13.948;2022-12-07T02:39:31;3.40;99.90
3994;DHT22;2011;48.238;13.948;2022-12-07T02:42:02;3.30;99.90
3994;DHT22;2011;48.238;13.948;2022-12-07T02:44:32;3.30;99.90
3994;DHT22;2011;48.238;13.948;2022-12-07T02:47:03;3.30;99.90
3994;DHT22;2011;48.238;13.948;2022-12-07T02:49:31;3.30;99.90
3994;DHT22;2011;48.238;13.948;2022-12-07T02:51:58;3.30;99.90
3994;DHT22;2011;48.238;13.948;2022-12-07T02:54:25;3.40;99.90
3994;DHT22;2011;48.238;13.948;2022-12-07T02:56:56;3.40;99.90
3994;DHT22;2011;48.238;13.948;2022-12-07T02:59:35;3.40;99.90
3994;DHT22;2011;48.238;13.948;2022-12-07T03:02:15;3.40;99.90
3994;DHT22;2011;48.238;13.948;2022-12-07T03:04:52;3.30;99.90
3994;DHT22;2011;48.238;13.948;2022-12-07T03:07:25;3.40;99.90
3994;DHT22;2011;48.238;13.948;2022-12-07T03:10:00;3.40;99.90
3994;DHT22;2011;48.238;13.948;2022-12-07T03:12:32;3.40;99.90
3994;DHT22;2011;48.238;13.948;2022-12-07T03:15:08;3.40;99.90
3994;DHT22;2011;48.238;13.948;2022-12-07T03:17:40;3.40;99.90
3994;DHT22;2011;48.238;13.948;2022-12-07T03:20:11;3.40;99.90
3994;DHT22;2011;48.238;13.948;2022-12-07T03:22:42;3.40;99.90
3994;DHT22;2011;48.238;13.948;2022-12-07T03:25:13;3.40;99.90
3994;DHT22;2011;48.238;13.948;2022-12-07T03:27:46;3.40;99.90
3994;DHT22;2011;48.238;13.948;2022-12-07T03:30:20;3.40;99.90
3994;DHT22;2011;48.238;13.948;2022-12-07T03:32:50;3.40;99.90
3994;DHT22;2011;48.238;13.948;2022-12-07T03:35:22;3.40;99.90
3994;DHT22;2011;48.238;13.948;2022-12-07T03:37:53;3.30;99.90
3994;DHT22;2011;48.238;13.948;2022-12-07T03:40:25;3.30;99.90
3994;DHT22;2011;48.238;13.948;2022-12-07T03:42:54;3.30;99.90
3994;DHT22;2011;48.238;13.948;2022-12-07T03:45:27;3.30;99.90
3994;DHT22;2011;48.238;13.948;2022-12-07T03:48:05;3.30;99.90
3994;DHT22;2011;48.238;13.948;2022-12-07T03:50:41;3.30;99.90
3994;DHT22;2011;48.238;13.948;2022-12-07T03:53:12;3.20;99.90
3994;DHT22;2011;48.238;13.948;2022-12-07T03:55:43;3.20;99.90
3994;DHT22;2011;48.238;13.948;2022-12-07T03:58:14;3.20;99.90
3994;DHT22;2011;48.238;13.948;2022-12-07T04:00:44;3.20;99.90
3994;DHT22;2011;48.238;13.948;2022-12-07T04:03:11;3.20;99.90
3994;DHT22;2011;48.238;13.948;2022-12-07T04:05:39;3.20;99.90
3994;DHT22;2011;48.238;13.948;2022-12-07T04:08:06;3.20;99.90
3994;DHT22;2011;48.238;13.948;2022-12-07T04:10:33;3.20;99.90
3994;DHT22;2011;48.238;13.948;2022-12-07T04:13:00;3.30;99.90
3994;DHT22;2011;48.238;13.948;2022-12-07T04:15:27;3.30;99.90
3994;DHT22;2011;48.238;13.948;2022-12-07T04:17:55;3.30;99.90
3994;DHT22;2011;48.238;13.948;2022-12-07T04:20:22;3.20;99.90
3994;DHT22;2011;48.238;13.948;2022-12-07T04:22:49;3.30;99.90
3994;DHT22;2011;48.238;13.948;2022-12-07T04:25:16;3.30;99.90
3994;DHT22;2011;48.238;13.948;2022-12-07T04:27:43;3.20;99.90
3994;DHT22;2011;48.238;13.948;2022-12-07T04:30:10;3.20;99.90
3994;DHT22;2011;48.238;13.948;2022-12-07T04:32:37;3.20;99.90
3994;DHT22;2011;48.238;13.948;2022-12-07T04:35:06;3.20;99.90
3994;DHT22;2011;48.238;13.948;2022-12-07T04:37:33;3.30;99.90
3994;DHT22;2011;48.238;13.948;2022-12-07T04:40:00;3.20;99.90
3994;DHT22;2011;48.238;13.948;2022-12-07T04:42:27;3.30;99.90
3994;DHT22;2011;48.238;13.948;2022-12-07T04:44:54;3.20;99.90
3994;DHT22;2011;48.238;13.948;2022-12-07T04:47:21;3.20;99.90
3994;DHT22;2011;48.238;13.948;2022-12-07T04:49:48;3.20;99.90
3994;DHT22;2011;48.238;13.948;2022-12-07T04:52:16;3.20;99.90
3994;DHT22;2011;48.238;13.948;2022-12-07T04:54:43;3.20;99.90
3994;DHT22;2011;48.238;13.948;2022-12-07T04:57:10;3.20;99.90
3994;DHT22;2011;48.238;13.948;2022-12-07T04:59:37;3.20;99.90
3994;DHT22;2011;48.238;13.948;2022-12-07T05:02:03;3.20;99.90
3994;DHT22;2011;48.238;13.948;2022-12-07T05:04:30;3.20;99.90
3994;DHT22;2011;48.238;13.948;2022-12-07T05:06:57;3.20;99.90
3994;DHT22;2011;48.238;13.948;2022-12-07T05:09:25;3.20;99.90
3994;DHT22;2011;48.238;13.948;2022-12-07T05:11:52;3.20;99.90
3994;DHT22;2011;48.238;13.948;2022-12-07T05:14:20;3.20;99.90
3994;DHT22;2011;48.238;13.948;2022-12-07T05:16:49;3.20;99.90
3994;DHT22;2011;48.238;13.948;2022-12-07T05:19:16;3.20;99.90
3994;DHT22;2011;48.238;13.948;2022-12-07T05:21:44;3.20;99.90
3994;DHT22;2011;48.238;13.948;2022-12-07T05:24:13;3.20;99.90
3994;DHT22;2011;48.238;13.948;2022-12-07T05:26:41;3.20;99.90
3994;DHT22;2011;48.238;13.948;2022-12-07T05:29:11;3.20;99.90
3994;DHT22;2011;48.238;13.948;2022-12-07T05:31:39;3.20;99.90
3994;DHT22;2011;48.238;13.948;2022-12-07T05:34:06;3.20;99.90
3994;DHT22;2011;48.238;13.948;2022-12-07T05:36:32;3.20;99.90
3994;DHT22;2011;48.238;13.948;2022-12-07T05:38:59;3.20;99.90
3994;DHT22;2011;48.238;13.948;2022-12-07T05:41:26;3.20;99.90
3994;DHT22;2011;48.238;13.948;2022-12-07T05:44:12;3.20;99.90
3994;DHT22;2011;48.238;13.948;2022-12-07T05:46:39;3.20;99.90
3994;DHT22;2011;48.238;13.948;2022-12-07T05:49:06;3.20;99.90
3994;DHT22;2011;48.238;13.948;2022-12-07T05:51:33;3.20;99.90
3994;DHT22;2011;48.238;13.948;2022-12-07T05:53:59;3.20;99.90
3994;DHT22;2011;48.238;13.948;2022-12-07T05:56:26;3.20;99.90
3994;DHT22;2011;48.238;13.948;2022-12-07T05:58:53;3.20;99.90
3994;DHT22;2011;48.238;13.948;2022-12-07T06:01:39;3.20;99.90
3994;DHT22;2011;48.238;13.948;2022-12-07T06:04:06;3.20;99.90
3994;DHT22;2011;48.238;13.948;2022-12-07T06:06:33;3.20;99.90
3994;DHT22;2011;48.238;13.948;2022-12-07T06:09:00;3.20;99.90
3994;DHT22;2011;48.238;13.948;2022-12-07T06:11:27;3.20;99.90
3994;DHT22;2011;48.238;13.948;2022-12-07T06:14:12;3.20;99.90
3994;DHT22;2011;48.238;13.948;2022-12-07T06:16:40;3.20;99.90
3994;DHT22;2011;48.238;13.948;2022-12-07T06:19:07;3.20;99.90
3994;DHT22;2011;48.238;13.948;2022-12-07T06:21:34;3.20;99.90
3994;DHT22;2011;48.238;13.948;2022-12-07T06:24:01;3.20;99.90
3994;DHT22;2011;48.238;13.948;2022-12-07T06:26:28;3.20;99.90
3994;DHT22;2011;48.238;13.948;2022-12-07T06:28:55;3.20;99.90
3994;DHT22;2011;48.238;13.948;2022-12-07T06:31:22;3.10;99.90
3994;DHT22;2011;48.238;13.948;2022-12-07T06:33:50;3.10;99.90
3994;DHT22;2011;48.238;13.948;2022-12-07T06:36:17;3.10;99.90
3994;DHT22;2011;48.238;13.948;2022-12-07T06:38:44;3.10;99.90
3994;DHT22;2011;48.238;13.948;2022-12-07T06:41:11;3.10;99.90
3994;DHT22;2011;48.238;13.948;2022-12-07T06:43:37;3.10;99.90
3994;DHT22;2011;48.238;13.948;2022-12-07T06:46:05;3.10;99.90
3994;DHT22;2011;48.238;13.948;2022-12-07T06:48:32;3.10;99.90
3994;DHT22;2011;48.238;13.948;2022-12-07T06:51:00;3.10;99.90
3994;DHT22;2011;48.238;13.948;2022-12-07T06:53:27;3.10;99.90
3994;DHT22;2011;48.238;13.948;2022-12-07T06:55:54;3.10;99.90
3994;DHT22;2011;48.238;13.948;2022-12-07T06:58:21;3.10;99.90
3994;DHT22;2011;48.238;13.948;2022-12-07T07:00:48;3.10;99.90
3994;DHT22;2011;48.238;13.948;2022-12-07T07:03:15;3.10;99.90
3994;DHT22;2011;48.238;13.948;2022-12-07T07:05:43;3.10;99.90
3994;DHT22;2011;48.238;13.948;2022-12-07T07:08:12;3.10;99.90
3994;DHT22;2011;48.238;13.948;2022-12-07T07:10:39;3.10;99.90
3994;DHT22;2011;48.238;13.948;2022-12-07T07:13:06;3.10;99.90
3994;DHT22;2011;48.238;13.948;2022-12-07T07:15:34;3.10;99.90
3994;DHT22;2011;48.238;13.948;2022-12-07T07:18:01;3.10;99.90
3994;DHT22;2011;48.238;13.948;2022-12-07T07:20:28;3.10;99.90
3994;DHT22;2011;48.238;13.948;2022-12-07T07:22:56;3.20;99.90
3994;DHT22;2011;48.238;13.948;2022-12-07T07:25:24;3.20;99.90
3994;DHT22;2011;48.238;13.948;2022-12-07T07:27:51;3.20;99.90
3994;DHT22;2011;48.238;13.948;2022-12-07T07:30:18;3.20;99.90
3994;DHT22;2011;48.238;13.948;2022-12-07T07:32:45;3.20;99.90
3994;DHT22;2011;48.238;13.948;2022-12-07T07:35:12;3.20;99.90
3994;DHT22;2011;48.238;13.948;2022-12-07T07:37:39;3.20;99.90
3994;DHT22;2011;48.238;13.948;2022-12-07T07:40:07;3.20;99.90
3994;DHT22;2011;48.238;13.948;2022-12-07T07:42:36;3.20;99.90
3994;DHT22;2011;48.238;13.948;2022-12-07T07:45:03;3.20;99.90
3994;DHT22;2011;48.238;13.948;2022-12-07T07:47:30;3.20;99.90
3994;DHT22;2011;48.238;13.948;2022-12-07T07:49:57;3.20;99.90
3994;DHT22;2011;48.238;13.948;2022-12-07T07:52:24;3.30;99.90
3994;DHT22;2011;48.238;13.948;2022-12-07T07:54:51;3.30;99.90
3994;DHT22;2011;48.238;13.948;2022-12-07T07:57:18;3.30;99.90
3994;DHT22;2011;48.238;13.948;2022-12-07T07:59:46;3.30;99.90
3994;DHT22;2011;48.238;13.948;2022-12-07T08:02:14;3.40;99.90
3994;DHT22;2011;48.238;13.948;2022-12-07T08:04:42;3.40;99.90
3994;DHT22;2011;48.238;13.948;2022-12-07T08:07:09;3.40;99.90
3994;DHT22;2011;48.238;13.948;2022-12-07T08:09:37;3.40;99.90
3994;DHT22;2011;48.238;13.948;2022-12-07T08:12:04;3.50;99.90
3994;DHT22;2011;48.238;13.948;2022-12-07T08:14:31;3.50;99.90
3994;DHT22;2011;48.238;13.948;2022-12-07T08:16:59;3.50;99.90
3994;DHT22;2011;48.238;13.948;2022-12-07T08:19:26;3.50;99.90
3994;DHT22;2011;48.238;13.948;2022-12-07T08:21:53;3.50;99.90
3994;DHT22;2011;48.238;13.948;2022-12-07T08:24:21;3.60;99.90
3994;DHT22;2011;48.238;13.948;2022-12-07T08:26:48;3.60;99.90
3994;DHT22;2011;48.238;13.948;2022-12-07T08:29:15;3.60;99.90
3994;DHT22;2011;48.238;13.948;2022-12-07T08:31:42;3.60;99.90
3994;DHT22;2011;48.238;13.948;2022-12-07T08:34:12;3.70;99.90
3994;DHT22;2011;48.238;13.948;2022-12-07T08:36:39;3.70;99.90
3994;DHT22;2011;48.238;13.948;2022-12-07T08:39:06;3.70;99.90
3994;DHT22;2011;48.238;13.948;2022-12-07T08:41:33;3.70;99.90
3994;DHT22;2011;48.238;13.948;2022-12-07T08:44:00;3.70;99.90
3994;DHT22;2011;48.238;13.948;2022-12-07T08:46:31;3.70;99.90
3994;DHT22;2011;48.238;13.948;2022-12-07T08:49:04;3.70;99.90
3994;DHT22;2011;48.238;13.948;2022-12-07T08:51:33;3.70;99.90
3994;DHT22;2011;48.238;13.948;2022-12-07T08:54:02;3.70;99.90
3994;DHT22;2011;48.238;13.948;2022-12-07T08:56:30;3.70;99.90
3994;DHT22;2011;48.238;13.948;2022-12-07T08:58:58;3.70;99.90
3994;DHT22;2011;48.238;13.948;2022-12-07T09:01:25;3.60;99.90
3994;DHT22;2011;48.238;13.948;2022-12-07T09:03:52;3.60;99.90
3994;DHT22;2011;48.238;13.948;2022-12-07T09:06:19;3.60;99.90
3994;DHT22;2011;48.238;13.948;2022-12-07T09:08:51;3.60;99.90
3994;DHT22;2011;48.238;13.948;2022-12-07T09:11:19;3.70;99.90
3994;DHT22;2011;48.238;13.948;2022-12-07T09:13:46;3.70;99.90
3994;DHT22;2011;48.238;13.948;2022-12-07T09:16:13;3.70;99.90
3994;DHT22;2011;48.238;13.948;2022-12-07T09:18:40;3.70;99.90
3994;DHT22;2011;48.238;13.948;2022-12-07T09:21:07;3.80;99.90
3994;DHT22;2011;48.238;13.948;2022-12-07T09:23:34;3.80;99.90
3994;DHT22;2011;48.238;13.948;2022-12-07T09:26:04;3.90;99.90
3994;DHT22;2011;48.238;13.948;2022-12-07T09:28:31;3.90;99.90
3994;DHT22;2011;48.238;13.948;2022-12-07T09:30:58;3.90;99.90
3994;DHT22;2011;48.238;13.948;2022-12-07T09:33:25;3.90;99.90
3994;DHT22;2011;48.238;13.948;2022-12-07T09:35:52;3.80;99.90
3994;DHT22;2011;48.238;13.948;2022-12-07T09:38:19;3.80;99.90
3994;DHT22;2011;48.238;13.948;2022-12-07T09:40:47;3.80;99.90
3994;DHT22;2011;48.238;13.948;2022-12-07T09:43:18;3.80;99.90
3994;DHT22;2011;48.238;13.948;2022-12-07T09:45:46;3.80;99.90
3994;DHT22;2011;48.238;13.948;2022-12-07T09:48:17;3.80;99.90
3994;DHT22;2011;48.238;13.948;2022-12-07T09:50:46;3.90;99.90
3994;DHT22;2011;48.238;13.948;2022-12-07T09:53:16;3.90;99.90
3994;DHT22;2011;48.238;13.948;2022-12-07T09:55:46;4.00;99.90
3994;DHT22;2011;48.238;13.948;2022-12-07T09:58:19;4.00;99.90
3994;DHT22;2011;48.238;13.948;2022-12-07T10:00:48;4.00;99.90
3994;DHT22;2011;48.238;13.948;2022-12-07T10:03:15;4.10;99.90
3994;DHT22;2011;48.238;13.948;2022-12-07T10:05:45;4.10;99.90
3994;DHT22;2011;48.238;13.948;2022-12-07T10:08:13;4.20;99.90
3994;DHT22;2011;48.238;13.948;2022-12-07T10:10:41;4.20;99.90
3994;DHT22;2011;48.238;13.948;2022-12-07T10:13:10;4.20;99.90
3994;DHT22;2011;48.238;13.948;2022-12-07T10:15:51;4.20;99.90
3994;DHT22;2011;48.238;13.948;2022-12-07T10:18:21;4.20;99.90
3994;DHT22;2011;48.238;13.948;2022-12-07T10:21:04;4.10;99.90
3994;DHT22;2011;48.238;13.948;2022-12-07T10:23:33;4.20;99.90
3994;DHT22;2011;48.238;13.948;2022-12-07T10:26:20;4.20;99.90
3994;DHT22;2011;48.238;13.948;2022-12-07T10:28:47;4.20;99.90
3994;DHT22;2011;48.238;13.948;2022-12-07T10:31:18;4.20;99.90
3994;DHT22;2011;48.238;13.948;2022-12-07T10:33:50;4.20;99.90
3994;DHT22;2011;48.238;13.948;2022-12-07T10:36:21;4.20;99.90
3994;DHT22;2011;48.238;13.948;2022-12-07T10:38:50;4.30;99.90
3994;DHT22;2011;48.238;13.948;2022-12-07T10:41:18;4.20;99.90
3994;DHT22;2011;48.238;13.948;2022-12-07T10:43:53;4.30;99.90
3994;DHT22;2011;48.238;13.948;2022-12-07T10:49:43;4.20;99.90
3994;DHT22;2011;48.238;13.948;2022-12-07T10:52:22;4.10;99.90
3994;DHT22;2011;48.238;13.948;2022-12-07T10:55:03;4.00;99.90
3994;DHT22;2011;48.238;13.948;2022-12-07T10:57:41;4.00;99.90
3994;DHT22;2011;48.238;13.948;2022-12-07T11:00:19;4.00;99.90
3994;DHT22;2011;48.238;13.948;2022-12-07T11:05:56;3.90;99.90
3994;DHT22;2011;48.238;13.948;2022-12-07T11:08:39;4.00;99.90
3994;DHT22;2011;48.238;13.948;2022-12-07T11:11:15;4.00;99.90
3994;DHT22;2011;48.238;13.948;2022-12-07T11:13:50;4.10;99.90
3994;DHT22;2011;48.238;13.948;2022-12-07T11:16:24;4.20;99.90
3994;DHT22;2011;48.238;13.948;2022-12-07T11:19:06;4.20;99.90
3994;DHT22;2011;48.238;13.948;2022-12-07T11:21:48;4.30;99.90
3994;DHT22;2011;48.238;13.948;2022-12-07T11:24:20;4.20;99.90
3994;DHT22;2011;48.238;13.948;2022-12-07T11:27:08;4.30;99.90
3994;DHT22;2011;48.238;13.948;2022-12-07T11:29:49;4.30;99.90
3994;DHT22;2011;48.238;13.948;2022-12-07T11:32:22;4.30;99.90
3994;DHT22;2011;48.238;13.948;2022-12-07T11:35:02;4.30;99.90
3994;DHT22;2011;48.238;13.948;2022-12-07T11:37:35;4.40;99.90
3994;DHT22;2011;48.238;13.948;2022-12-07T11:40:04;4.40;99.90
3994;DHT22;2011;48.238;13.948;2022-12-07T11:42:38;4.40;99.90
3994;DHT22;2011;48.238;13.948;2022-12-07T11:45:14;4.40;99.90
3994;DHT22;2011;48.238;13.948;2022-12-07T11:47:46;4.40;99.90
3994;DHT22;2011;48.238;13.948;2022-12-07T11:50:31;4.30;99.90
3994;DHT22;2011;48.238;13.948;2022-12-07T11:53:03;4.20;99.90
3994;DHT22;2011;48.238;13.948;2022-12-07T11:55:42;4.20;99.90
3994;DHT22;2011;48.238;13.948;2022-12-07T11:58:21;4.20;99.90
3994;DHT22;2011;48.238;13.948;2022-12-07T12:00:50;4.20;99.90
3994;DHT22;2011;48.238;13.948;2022-12-07T12:03:25;4.20;99.90
3994;DHT22;2011;48.238;13.948;2022-12-07T12:05:55;4.20;99.90
3994;DHT22;2011;48.238;13.948;2022-12-07T12:08:29;4.30;99.90
3994;DHT22;2011;48.238;13.948;2022-12-07T12:11:03;4.40;99.90
3994;DHT22;2011;48.238;13.948;2022-12-07T12:13:54;4.30;99.90
3994;DHT22;2011;48.238;13.948;2022-12-07T12:17:01;4.30;99.90
3994;DHT22;2011;48.238;13.948;2022-12-07T12:19:34;4.40;99.90
3994;DHT22;2011;48.238;13.948;2022-12-07T12:22:09;4.60;99.90
3994;DHT22;2011;48.238;13.948;2022-12-07T12:24:40;4.50;99.90
3994;DHT22;2011;48.238;13.948;2022-12-07T12:27:09;4.40;99.90
3994;DHT22;2011;48.238;13.948;2022-12-07T12:29:42;4.40;99.90
3994;DHT22;2011;48.238;13.948;2022-12-07T12:32:16;4.40;99.90
3994;DHT22;2011;48.238;13.948;2022-12-07T12:35:01;4.40;99.90
3994;DHT22;2011;48.238;13.948;2022-12-07T12:37:42;4.50;99.90
3994;DHT22;2011;48.238;13.948;2022-12-07T12:40:40;4.40;99.90
3994;DHT22;2011;48.238;13.948;2022-12-07T12:46:46;4.50;99.90
3994;DHT22;2011;48.238;13.948;2022-12-07T12:50:10;4.50;99.90
3994;DHT22;2011;48.238;13.948;2022-12-07T12:56:17;4.40;99.90
3994;DHT22;2011;48.238;13.948;2022-12-07T12:58:49;4.40;99.90
3994;DHT22;2011;48.238;13.948;2022-12-07T13:01:40;4.40;99.90
3994;DHT22;2011;48.238;13.948;2022-12-07T13:07:13;4.40;99.90
3994;DHT22;2011;48.238;13.948;2022-12-07T13:10:01;4.40;99.90
3994;DHT22;2011;48.238;13.948;2022-12-07T13:12:31;4.50;99.90
3994;DHT22;2011;48.238;13.948;2022-12-07T13:14:58;4.40;99.90
3994;DHT22;2011;48.238;13.948;2022-12-07T13:18:01;4.50;99.90
3994;DHT22;2011;48.238;13.948;2022-12-07T13:20:46;4.50;99.90
3994;DHT22;2011;48.238;13.948;2022-12-07T13:23:16;4.50;99.90
3994;DHT22;2011;48.238;13.948;2022-12-07T13:26:09;4.50;99.90
3994;DHT22;2011;48.238;13.948;2022-12-07T13:28:42;4.60;99.90
3994;DHT22;2011;48.238;13.948;2022-12-07T13:31:14;4.50;99.90
3994;DHT22;2011;48.238;13.948;2022-12-07T13:33:44;4.50;99.90
3994;DHT22;2011;48.238;13.948;2022-12-07T13:36:18;4.50;99.90
3994;DHT22;2011;48.238;13.948;2022-12-07T13:38:51;4.50;99.90
3994;DHT22;2011;48.238;13.948;2022-12-07T13:41:21;4.40;99.90
3994;DHT22;2011;48.238;13.948;2022-12-07T13:43:53;4.50;99.90
3994;DHT22;2011;48.238;13.948;2022-12-07T13:46:26;4.50;99.90
3994;DHT22;2011;48.238;13.948;2022-12-07T13:48:54;4.50;99.90
3994;DHT22;2011;48.238;13.948;2022-12-07T13:51:24;4.50;99.90
3994;DHT22;2011;48.238;13.948;2022-12-07T13:53:53;4.50;99.90
3994;DHT22;2011;48.238;13.948;2022-12-07T13:56:22;4.50;99.90
3994;DHT22;2011;48.238;13.948;2022-12-07T13:58:52;4.50;99.90
3994;DHT22;2011;48.238;13.948;2022-12-07T14:01:19;4.40;99.90
3994;DHT22;2011;48.238;13.948;2022-12-07T14:03:46;4.40;99.90
3994;DHT22;2011;48.238;13.948;2022-12-07T14:06:20;4.30;99.90
3994;DHT22;2011;48.238;13.948;2022-12-07T14:08:48;4.30;99.90
3994;DHT22;2011;48.238;13.948;2022-12-07T14:11:17;4.20;99.90
3994;DHT22;2011;48.238;13.948;2022-12-07T14:13:59;4.20;99.90
3994;DHT22;2011;48.238;13.948;2022-12-07T14:16:28;4.20;99.90
3994;DHT22;2011;48.238;13.948;2022-12-07T14:18:57;4.10;99.90
3994;DHT22;2011;48.238;13.948;2022-12-07T14:21:25;4.10;99.90
3994;DHT22;2011;48.238;13.948;2022-12-07T14:24:16;4.00;99.90
3994;DHT22;2011;48.238;13.948;2022-12-07T14:26:44;4.00;99.90
3994;DHT22;2011;48.238;13.948;2022-12-07T14:29:30;3.90;99.90
3994;DHT22;2011;48.238;13.948;2022-12-07T14:32:20;3.90;99.90
3994;DHT22;2011;48.238;13.948;2022-12-07T14:35:00;3.90;99.90
3994;DHT22;2011;48.238;13.948;2022-12-07T14:37:29;3.80;99.90
3994;DHT22;2011;48.238;13.948;2022-12-07T14:39:56;3.80;99.90
3994;DHT22;2011;48.238;13.948;2022-12-07T14:42:26;3.80;99.90
3994;DHT22;2011;48.238;13.948;2022-12-07T14:44:55;3.80;99.90
3994;DHT22;2011;48.238;13.948;2022-12-07T14:47:22;3.70;99.90
3994;DHT22;2011;48.238;13.948;2022-12-07T14:49:49;3.80;99.90
3994;DHT22;2011;48.238;13.948;2022-12-07T14:52:19;3.80;99.90
3994;DHT22;2011;48.238;13.948;2022-12-07T14:54:47;3.70;99.90
3994;DHT22;2011;48.238;13.948;2022-12-07T14:57:14;3.70;99.90
3994;DHT22;2011;48.238;13.948;2022-12-07T14:59:41;3.70;99.90
3994;DHT22;2011;48.238;13.948;2022-12-07T15:02:12;3.70;99.90
3994;DHT22;2011;48.238;13.948;2022-12-07T15:04:40;3.70;99.90
3994;DHT22;2011;48.238;13.948;2022-12-07T15:07:12;3.70;99.90
3994;DHT22;2011;48.238;13.948;2022-12-07T15:09:41;3.60;99.90
3994;DHT22;2011;48.238;13.948;2022-12-07T15:12:08;3.70;99.90
3994;DHT22;2011;48.238;13.948;2022-12-07T15:14:35;3.60;99.90
3994;DHT22;2011;48.238;13.948;2022-12-07T15:17:01;3.60;99.90
3994;DHT22;2011;48.238;13.948;2022-12-07T15:19:30;3.60;99.90
3994;DHT22;2011;48.238;13.948;2022-12-07T15:21:57;3.60;99.90
3994;DHT22;2011;48.238;13.948;2022-12-07T15:24:25;3.60;99.90
3994;DHT22;2011;48.238;13.948;2022-12-07T15:26:53;3.60;99.90
3994;DHT22;2011;48.238;13.948;2022-12-07T15:29:20;3.50;99.90
3994;DHT22;2011;48.238;13.948;2022-12-07T15:31:48;3.50;99.90
3994;DHT22;2011;48.238;13.948;2022-12-07T15:34:16;3.50;99.90
3994;DHT22;2011;48.238;13.948;2022-12-07T15:36:44;3.50;99.90
3994;DHT22;2011;48.238;13.948;2022-12-07T15:39:12;3.50;99.90
3994;DHT22;2011;48.238;13.948;2022-12-07T15:41:38;3.50;99.90
3994;DHT22;2011;48.238;13.948;2022-12-07T15:44:05;3.50;99.90
3994;DHT22;2011;48.238;13.948;2022-12-07T15:46:49;3.50;99.90
3994;DHT22;2011;48.238;13.948;2022-12-07T15:49:18;3.50;99.90
3994;DHT22;2011;48.238;13.948;2022-12-07T15:51:46;3.40;99.90
3994;DHT22;2011;48.238;13.948;2022-12-07T15:54:17;3.40;99.90
3994;DHT22;2011;48.238;13.948;2022-12-07T15:56:44;3.40;99.90
3994;DHT22;2011;48.238;13.948;2022-12-07T15:59:11;3.50;99.90
3994;DHT22;2011;48.238;13.948;2022-12-07T16:01:38;3.50;99.90
3994;DHT22;2011;48.238;13.948;2022-12-07T16:04:05;3.50;99.90
3994;DHT22;2011;48.238;13.948;2022-12-07T16:06:32;3.50;99.90
3994;DHT22;2011;48.238;13.948;2022-12-07T16:09:00;3.50;99.90
3994;DHT22;2011;48.238;13.948;2022-12-07T16:11:27;3.50;99.90
3994;DHT22;2011;48.238;13.948;2022-12-07T16:13:54;3.50;99.90
3994;DHT22;2011;48.238;13.948;2022-12-07T16:16:21;3.40;99.90
3994;DHT22;2011;48.238;13.948;2022-12-07T16:18:49;3.40;99.90
3994;DHT22;2011;48.238;13.948;2022-12-07T16:21:17;3.40;99.90
3994;DHT22;2011;48.238;13.948;2022-12-07T16:23:44;3.40;99.90
3994;DHT22;2011;48.238;13.948;2022-12-07T16:26:14;3.40;99.90
3994;DHT22;2011;48.238;13.948;2022-12-07T16:28:42;3.40;99.90
3994;DHT22;2011;48.238;13.948;2022-12-07T16:31:11;3.40;99.90
3994;DHT22;2011;48.238;13.948;2022-12-07T16:33:39;3.40;99.90
3994;DHT22;2011;48.238;13.948;2022-12-07T16:36:08;3.30;99.90
3994;DHT22;2011;48.238;13.948;2022-12-07T16:38:36;3.30;99.90
3994;DHT22;2011;48.238;13.948;2022-12-07T16:41:04;3.30;99.90